createdAt,value
2024-02-16T00:00:46.190Z,1.00
2024-02-16T00:01:46.156Z,1.80
2024-02-16T00:02:46.203Z,1.50
2024-02-16T00:03:46.133Z,1.70
2024-02-16T00:04:46.189Z,1.60
2024-02-16T00:05:46.129Z,1.50
2024-02-16T00:06:46.216Z,1.80
2024-02-16T00:07:46.096Z,2.00
2024-02-16T00:08:46.129Z,1.80
2024-02-16T00:09:46.103Z,1.80
2024-02-16T00:10:46.105Z,1.80
2024-02-16T00:11:46.085Z,1.20
2024-02-16T00:12:46.037Z,1.70
2024-02-16T00:13:46.015Z,1.60
2024-02-16T00:14:46.066Z,1.60
2024-02-16T00:15:45.996Z,1.50
2024-02-16T00:16:46.035Z,1.50
2024-02-16T00:17:46.071Z,1.20
2024-02-16T00:18:46.066Z,1.60
2024-02-16T00:19:45.965Z,1.70
2024-02-16T00:20:45.985Z,1.60
2024-02-16T00:21:45.937Z,1.40
2024-02-16T00:22:45.943Z,1.60
2024-02-16T00:23:46.044Z,1.60
2024-02-16T00:24:45.899Z,1.60
2024-02-16T00:25:45.881Z,2.00
2024-02-16T00:26:45.922Z,1.60
2024-02-16T00:27:45.905Z,1.80
2024-02-16T00:28:45.898Z,1.50
2024-02-16T00:29:45.872Z,1.60
2024-02-16T00:30:45.827Z,1.50
2024-02-16T00:31:45.833Z,2.00
2024-02-16T00:32:45.846Z,1.80
2024-02-16T00:33:45.986Z,1.60
2024-02-16T00:34:45.908Z,1.70
2024-02-16T00:35:45.811Z,1.50
2024-02-16T00:36:45.770Z,1.50
2024-02-16T00:37:45.759Z,1.50
2024-02-16T00:38:45.770Z,1.70
2024-02-16T00:39:45.737Z,1.60
2024-02-16T00:40:45.921Z,1.50
2024-02-16T00:41:45.745Z,1.50
2024-02-16T00:42:45.695Z,1.30
2024-02-16T00:43:45.682Z,1.60
2024-02-16T00:44:45.704Z,1.40
2024-02-16T00:45:45.662Z,1.30
2024-02-16T00:46:45.694Z,1.40
2024-02-16T00:47:45.692Z,1.30
2024-02-16T00:48:45.755Z,1.80
2024-02-16T00:49:45.654Z,1.50
2024-02-16T00:50:45.623Z,1.80
2024-02-16T00:51:45.604Z,1.70
2024-02-16T00:52:45.636Z,1.80
2024-02-16T00:53:45.605Z,1.70
2024-02-16T00:54:45.572Z,1.40
2024-02-16T00:55:45.555Z,1.70
2024-02-16T00:56:45.581Z,1.70
2024-02-16T00:57:45.533Z,1.60
2024-02-16T00:58:45.553Z,1.30
2024-02-16T00:59:45.524Z,1.80
2024-02-16T01:00:45.594Z,1.50
2024-02-16T01:01:45.481Z,1.70
2024-02-16T01:02:45.538Z,1.50
2024-02-16T01:03:45.462Z,1.70
2024-02-16T01:04:45.532Z,1.60
2024-02-16T01:05:45.458Z,1.70
2024-02-16T01:06:45.448Z,2.00
2024-02-16T01:07:45.479Z,1.60
2024-02-16T01:08:45.490Z,1.90
2024-02-16T01:09:45.392Z,1.60
2024-02-16T01:10:45.441Z,1.70
2024-02-16T01:11:45.444Z,1.40
2024-02-16T01:12:45.367Z,1.90
2024-02-16T01:13:45.343Z,1.90
2024-02-16T01:14:45.412Z,1.70
2024-02-16T01:15:45.329Z,1.80
2024-02-16T01:16:45.359Z,1.80
2024-02-16T01:17:45.374Z,1.60
2024-02-16T01:18:45.394Z,1.40
2024-02-16T01:19:45.349Z,2.00
2024-02-16T01:20:45.286Z,1.60
2024-02-16T01:21:45.255Z,1.60
2024-02-16T01:22:45.293Z,1.70
2024-02-16T01:23:45.241Z,1.60
2024-02-16T01:24:45.227Z,1.50
2024-02-16T01:25:45.210Z,1.50
2024-02-16T01:26:45.227Z,1.60
2024-02-16T01:27:45.186Z,1.60
2024-02-16T01:28:45.212Z,1.90
2024-02-16T01:29:45.210Z,1.70
2024-02-16T01:30:45.191Z,1.70
2024-02-16T01:31:45.163Z,1.80
2024-02-16T01:32:45.218Z,1.70
2024-02-16T01:33:45.214Z,2.00
2024-02-16T01:34:45.253Z,1.80
2024-02-16T01:35:45.132Z,1.80
2024-02-16T01:36:45.101Z,1.90
2024-02-16T01:37:45.078Z,1.80
2024-02-16T01:38:45.064Z,1.60
2024-02-16T01:39:45.057Z,1.60
2024-02-16T01:40:45.080Z,2.10
2024-02-16T01:41:45.027Z,1.80
2024-02-16T01:42:45.027Z,1.90
2024-02-16T01:43:45.001Z,1.50
2024-02-16T01:44:44.999Z,1.60
2024-02-16T01:45:44.995Z,1.60
2024-02-16T01:46:45.021Z,1.90
2024-02-16T01:47:45.051Z,1.50
2024-02-16T01:48:45.054Z,1.70
2024-02-16T01:49:44.981Z,1.90
2024-02-16T01:50:44.948Z,1.60
2024-02-16T01:51:44.916Z,1.60
2024-02-16T01:52:44.944Z,1.50
2024-02-16T01:53:44.890Z,1.50
2024-02-16T01:54:44.882Z,1.50
2024-02-16T01:55:44.864Z,1.60
2024-02-16T01:56:44.867Z,1.60
2024-02-16T01:57:44.851Z,1.90
2024-02-16T01:58:44.880Z,1.90
2024-02-16T01:59:44.849Z,1.70
2024-02-16T02:00:44.869Z,1.50
2024-02-16T02:01:44.804Z,1.40
2024-02-16T02:02:44.797Z,1.70
2024-02-16T02:03:44.779Z,1.30
2024-02-16T02:04:44.930Z,1.70
2024-02-16T02:05:44.870Z,1.30
2024-02-16T02:06:44.765Z,1.60
2024-02-16T02:07:44.731Z,1.70
2024-02-16T02:08:44.732Z,1.70
2024-02-16T02:09:44.719Z,1.50
2024-02-16T02:10:44.774Z,1.30
2024-02-16T02:11:44.691Z,1.40
2024-02-16T02:12:44.739Z,1.40
2024-02-16T02:13:44.671Z,1.60
2024-02-16T02:14:44.655Z,1.40
2024-02-16T02:15:44.740Z,1.40
2024-02-16T02:16:51.527Z,1.30
2024-02-16T02:17:44.688Z,1.00
2024-02-16T02:18:44.724Z,1.30
2024-02-16T02:19:44.675Z,1.60
2024-02-16T02:20:44.590Z,1.40
2024-02-16T02:21:44.578Z,1.20
2024-02-16T02:22:44.613Z,1.20
2024-02-16T02:23:44.553Z,1.10
2024-02-16T02:24:44.546Z,1.20
2024-02-16T02:25:44.539Z,1.00
2024-02-16T02:26:44.522Z,0.90
2024-02-16T02:27:44.512Z,1.20
2024-02-16T02:28:44.558Z,1.30
2024-02-16T02:29:44.482Z,1.30
2024-02-16T02:30:44.489Z,1.40
2024-02-16T02:31:44.551Z,1.00
2024-02-16T02:32:44.473Z,1.20
2024-02-16T02:33:44.596Z,1.30
2024-02-16T02:34:44.593Z,1.40
2024-02-16T02:35:44.430Z,1.20
2024-02-16T02:36:44.413Z,1.20
2024-02-16T02:37:44.395Z,1.10
2024-02-16T02:38:44.386Z,1.30
2024-02-16T02:39:44.375Z,1.00
2024-02-16T02:40:44.402Z,1.50
2024-02-16T02:41:44.360Z,1.00
2024-02-16T02:42:44.339Z,1.10
2024-02-16T02:43:44.332Z,1.10
2024-02-16T02:44:44.318Z,1.10
2024-02-16T02:45:44.306Z,1.10
2024-02-16T02:46:44.336Z,1.20
2024-02-16T02:47:44.296Z,1.00
2024-02-16T02:48:46.699Z,1.20
2024-02-16T02:49:44.314Z,1.20
2024-02-16T02:50:44.259Z,1.00
2024-02-16T02:51:44.234Z,1.00
2024-02-16T02:52:44.272Z,1.20
2024-02-16T02:53:44.215Z,1.40
2024-02-16T02:54:44.222Z,1.20
2024-02-16T02:55:44.189Z,0.90
2024-02-16T02:56:44.220Z,1.10
2024-02-16T02:57:44.172Z,1.00
2024-02-16T02:58:44.201Z,1.20
2024-02-16T02:59:44.153Z,1.20
2024-02-16T03:00:44.204Z,1.30
2024-02-16T03:01:44.129Z,1.10
2024-02-16T03:02:44.112Z,1.00
2024-02-16T03:03:44.387Z,1.30
2024-02-16T03:04:44.139Z,1.30
2024-02-16T03:05:44.086Z,1.00
2024-02-16T03:06:44.151Z,1.20
2024-02-16T03:07:44.075Z,1.30
2024-02-16T03:08:44.050Z,1.10
2024-02-16T03:09:44.032Z,1.00
2024-02-16T03:10:44.088Z,1.50
2024-02-16T03:11:44.010Z,1.20
2024-02-16T03:12:44.006Z,1.20
2024-02-16T03:13:43.990Z,1.20
2024-02-16T03:14:43.985Z,1.10
2024-02-16T03:15:43.972Z,1.20
2024-02-16T03:16:43.990Z,0.80
2024-02-16T03:17:44.042Z,1.10
2024-02-16T03:18:44.229Z,1.00
2024-02-16T03:19:44.078Z,1.10
2024-02-16T03:20:43.919Z,1.00
2024-02-16T03:21:43.906Z,1.00
2024-02-16T03:22:43.941Z,1.10
2024-02-16T03:23:43.874Z,1.50
2024-02-16T03:24:43.864Z,1.00
2024-02-16T03:25:43.853Z,1.30
2024-02-16T03:26:43.926Z,1.10
2024-02-16T03:27:43.831Z,1.40
2024-02-16T03:28:43.847Z,1.10
2024-02-16T03:29:43.807Z,1.20
2024-02-16T03:30:43.837Z,1.10
2024-02-16T03:31:43.795Z,1.20
2024-02-16T03:32:43.827Z,1.30
2024-02-16T03:33:43.842Z,1.40
2024-02-16T03:34:44.124Z,1.40
2024-02-16T03:35:43.752Z,1.50
2024-02-16T03:36:43.739Z,1.50
2024-02-16T03:37:43.722Z,1.40
2024-02-16T03:38:43.715Z,1.00
2024-02-16T03:39:43.770Z,1.60
2024-02-16T03:40:43.747Z,1.20
2024-02-16T03:41:43.679Z,1.20
2024-02-16T03:42:43.666Z,1.40
2024-02-16T03:43:43.656Z,1.20
2024-02-16T03:44:43.653Z,1.60
2024-02-16T03:45:43.670Z,1.20
2024-02-16T03:46:43.667Z,1.20
2024-02-16T03:47:43.632Z,1.60
2024-02-16T03:48:43.826Z,1.20
2024-02-16T03:49:43.686Z,1.20
2024-02-16T03:50:43.573Z,1.20
2024-02-16T03:51:43.565Z,1.10
2024-02-16T03:52:43.577Z,1.40
2024-02-16T03:53:43.541Z,1.20
2024-02-16T03:54:43.530Z,1.10
2024-02-16T03:55:43.528Z,1.10
2024-02-16T03:56:43.513Z,1.30
2024-02-16T03:57:43.514Z,1.10
2024-02-16T03:58:43.531Z,1.30
2024-02-16T03:59:43.481Z,1.30
2024-02-16T04:00:43.624Z,1.20
2024-02-16T04:01:43.613Z,1.20
2024-02-16T04:02:43.437Z,1.10
2024-02-16T04:03:43.470Z,1.20
2024-02-16T04:04:43.501Z,1.20
2024-02-16T04:05:43.407Z,1.20
2024-02-16T04:06:43.463Z,1.10
2024-02-16T04:07:43.431Z,1.20
2024-02-16T04:08:43.372Z,1.40
2024-02-16T04:09:43.434Z,0.90
2024-02-16T04:10:43.434Z,1.10
2024-02-16T04:11:43.381Z,1.20
2024-02-16T04:12:43.380Z,1.20
2024-02-16T04:13:43.425Z,1.20
2024-02-16T04:14:43.307Z,1.20
2024-02-16T04:15:43.679Z,1.20
2024-02-16T04:16:43.407Z,1.20
2024-02-16T04:17:43.392Z,1.00
2024-02-16T04:18:43.472Z,1.20
2024-02-16T04:19:43.402Z,1.00
2024-02-16T04:20:43.268Z,1.00
2024-02-16T04:21:43.315Z,1.00
2024-02-16T04:22:43.251Z,1.40
2024-02-16T04:23:43.205Z,1.10
2024-02-16T04:24:43.199Z,1.10
2024-02-16T04:25:43.241Z,1.10
2024-02-16T04:26:43.320Z,1.20
2024-02-16T04:27:43.263Z,1.00
2024-02-16T04:28:43.187Z,1.30
2024-02-16T04:29:43.322Z,1.20
2024-02-16T04:30:43.221Z,1.10
2024-02-16T04:31:43.208Z,1.00
2024-02-16T04:32:43.249Z,1.10
2024-02-16T04:33:43.397Z,0.90
2024-02-16T04:34:43.358Z,1.10
2024-02-16T04:35:43.111Z,0.90
2024-02-16T04:36:43.097Z,1.00
2024-02-16T04:37:43.077Z,1.00
2024-02-16T04:38:43.055Z,1.00
2024-02-16T04:39:43.105Z,1.20
2024-02-16T04:40:43.052Z,1.40
2024-02-16T04:41:43.002Z,1.30
2024-02-16T04:42:42.991Z,1.10
2024-02-16T04:43:42.993Z,1.10
2024-02-16T04:44:42.965Z,1.40
2024-02-16T04:45:42.988Z,1.10
2024-02-16T04:46:42.986Z,1.00
2024-02-16T04:47:42.971Z,1.00
2024-02-16T04:48:43.003Z,0.90
2024-02-16T04:49:42.938Z,1.10
2024-02-16T04:50:42.922Z,1.00
2024-02-16T04:51:42.905Z,1.20
2024-02-16T04:52:42.939Z,1.00
2024-02-16T04:53:42.878Z,1.10
2024-02-16T04:54:42.866Z,1.00
2024-02-16T04:55:42.849Z,1.30
2024-02-16T04:56:42.838Z,1.00
2024-02-16T04:57:42.858Z,0.80
2024-02-16T04:58:42.864Z,1.40
2024-02-16T04:59:42.801Z,1.00
2024-02-16T05:00:42.871Z,1.10
2024-02-16T05:01:42.787Z,0.80
2024-02-16T05:02:42.789Z,1.00
2024-02-16T05:03:43.020Z,0.90
2024-02-16T05:04:42.784Z,1.00
2024-02-16T05:05:42.753Z,1.00
2024-02-16T05:06:42.821Z,1.20
2024-02-16T05:07:42.708Z,1.10
2024-02-16T05:08:42.695Z,1.10
2024-02-16T05:09:42.725Z,1.10
2024-02-16T05:10:42.847Z,1.30
2024-02-16T05:11:42.667Z,1.00
2024-02-16T05:12:42.814Z,1.40
2024-02-16T05:13:42.646Z,1.10
2024-02-16T05:14:42.641Z,1.60
2024-02-16T05:15:42.693Z,1.10
2024-02-16T05:16:42.650Z,1.20
2024-02-16T05:17:42.692Z,1.30
2024-02-16T05:18:42.652Z,1.10
2024-02-16T05:19:42.638Z,1.10
2024-02-16T05:20:42.559Z,1.10
2024-02-16T05:21:42.578Z,1.30
2024-02-16T05:22:42.606Z,1.50
2024-02-16T05:23:42.533Z,1.30
2024-02-16T05:24:42.529Z,1.20
2024-02-16T05:25:42.522Z,1.00
2024-02-16T05:26:42.496Z,1.30
2024-02-16T05:27:42.494Z,0.90
2024-02-16T05:28:42.524Z,1.20
2024-02-16T05:29:42.466Z,1.20
2024-02-16T05:30:42.557Z,1.50
2024-02-16T05:31:42.439Z,1.10
2024-02-16T05:32:42.489Z,1.30
2024-02-16T05:33:42.519Z,1.00
2024-02-16T05:34:42.485Z,1.20
2024-02-16T05:35:42.938Z,1.00
2024-02-16T05:36:42.388Z,0.90
2024-02-16T05:37:42.383Z,1.10
2024-02-16T05:38:42.372Z,1.10
2024-02-16T05:39:42.374Z,1.50
2024-02-16T05:40:42.402Z,1.20
2024-02-16T05:41:42.341Z,1.20
2024-02-16T05:42:42.449Z,1.10
2024-02-16T05:43:42.414Z,1.10
2024-02-16T05:44:42.428Z,1.30
2024-02-16T05:45:42.740Z,1.30
2024-02-16T05:46:42.772Z,1.20
2024-02-16T05:47:42.833Z,1.10
2024-02-16T05:48:42.853Z,1.30
2024-02-16T05:49:42.435Z,1.40
2024-02-16T05:50:42.445Z,1.20
2024-02-16T05:51:42.450Z,1.10
2024-02-16T05:52:42.389Z,1.70
2024-02-16T05:53:42.312Z,1.40
2024-02-16T05:54:42.395Z,1.50
2024-02-16T05:55:42.212Z,1.10
2024-02-16T05:56:42.167Z,1.20
2024-02-16T05:57:42.177Z,1.30
2024-02-16T05:58:42.197Z,1.00
2024-02-16T05:59:42.129Z,1.10
2024-02-16T06:00:42.130Z,1.20
2024-02-16T06:01:42.200Z,1.30
2024-02-16T06:02:42.093Z,1.20
2024-02-16T06:03:42.159Z,1.20
2024-02-16T06:04:42.162Z,1.10
2024-02-16T06:05:42.077Z,1.10
2024-02-16T06:06:42.137Z,1.20
2024-02-16T06:07:42.204Z,1.00
2024-02-16T06:08:42.026Z,1.00
2024-02-16T06:09:42.065Z,1.40
2024-02-16T06:10:42.105Z,1.00
2024-02-16T06:11:42.053Z,1.30
2024-02-16T06:12:42.093Z,1.20
2024-02-16T06:13:41.992Z,1.20
2024-02-16T06:14:41.966Z,1.20
2024-02-16T06:15:43.047Z,1.30
2024-02-16T06:16:42.670Z,1.30
2024-02-16T06:17:43.143Z,1.30
2024-02-16T06:18:43.178Z,1.20
2024-02-16T06:19:42.065Z,1.10
2024-02-16T06:20:42.070Z,1.30
2024-02-16T06:21:41.901Z,0.90
2024-02-16T06:22:41.916Z,1.10
2024-02-16T06:23:42.257Z,1.20
2024-02-16T06:24:42.232Z,1.40
2024-02-16T06:25:42.422Z,1.00
2024-02-16T06:26:41.918Z,1.30
2024-02-16T06:27:41.819Z,1.10
2024-02-16T06:28:41.837Z,1.50
2024-02-16T06:29:41.784Z,0.90
2024-02-16T06:30:42.244Z,0.90
2024-02-16T06:31:41.857Z,0.90
2024-02-16T06:32:41.911Z,1.20
2024-02-16T06:33:41.933Z,1.30
2024-02-16T06:34:42.255Z,1.10
2024-02-16T06:35:41.718Z,1.40
2024-02-16T06:36:43.075Z,1.50
2024-02-16T06:37:41.696Z,1.40
2024-02-16T06:38:41.684Z,1.40
2024-02-16T06:39:41.714Z,1.10
2024-02-16T06:40:41.721Z,1.30
2024-02-16T06:41:41.652Z,1.40
2024-02-16T06:42:41.710Z,1.30
2024-02-16T06:43:41.633Z,1.40
2024-02-16T06:44:41.656Z,1.20
2024-02-16T06:45:41.712Z,1.40
2024-02-16T06:46:41.630Z,1.30
2024-02-16T06:47:41.794Z,1.10
2024-02-16T06:48:41.687Z,1.10
2024-02-16T06:49:41.590Z,1.40
2024-02-16T06:50:41.645Z,1.20
2024-02-16T06:51:41.568Z,1.20
2024-02-16T06:52:41.558Z,1.10
2024-02-16T06:53:41.520Z,1.10
2024-02-16T06:54:41.523Z,1.50
2024-02-16T06:55:41.511Z,1.20
2024-02-16T06:56:41.499Z,1.20
2024-02-16T06:57:41.541Z,1.20
2024-02-16T06:58:41.497Z,1.10
2024-02-16T06:59:41.458Z,1.30
2024-02-16T07:00:41.532Z,1.00
2024-02-16T07:01:41.471Z,1.10
2024-02-16T07:02:41.426Z,1.30
2024-02-16T07:03:41.470Z,1.00
2024-02-16T07:04:41.502Z,1.20
2024-02-16T07:05:41.399Z,1.00
2024-02-16T07:06:41.436Z,1.20
2024-02-16T07:07:41.347Z,1.00
2024-02-16T07:08:41.356Z,1.60
2024-02-16T07:09:41.414Z,1.30
2024-02-16T07:10:41.386Z,1.20
2024-02-16T07:11:41.493Z,1.40
2024-02-16T07:12:41.403Z,1.20
2024-02-16T07:13:41.289Z,1.40
2024-02-16T07:14:41.284Z,1.10
2024-02-16T07:15:41.348Z,1.60
2024-02-16T07:16:41.305Z,1.20
2024-02-16T07:17:41.274Z,1.10
2024-02-16T07:18:41.388Z,1.20
2024-02-16T07:19:41.400Z,1.50
2024-02-16T07:20:41.230Z,1.30
2024-02-16T07:21:41.376Z,1.10
2024-02-16T07:22:41.230Z,1.10
2024-02-16T07:23:41.249Z,1.10
2024-02-16T07:24:41.293Z,1.50
2024-02-16T07:25:41.172Z,1.20
2024-02-16T07:26:42.039Z,1.20
2024-02-16T07:27:41.187Z,1.30
2024-02-16T07:28:41.163Z,1.60
2024-02-16T07:29:41.111Z,1.20
2024-02-16T07:30:43.709Z,1.00
2024-02-16T07:31:41.098Z,1.30
2024-02-16T07:32:41.086Z,1.20
2024-02-16T07:33:41.241Z,1.30
2024-02-16T07:34:41.230Z,1.00
2024-02-16T07:35:41.054Z,1.30
2024-02-16T07:36:41.067Z,1.10
2024-02-16T07:37:41.024Z,1.30
2024-02-16T07:38:41.021Z,1.50
2024-02-16T07:39:41.078Z,1.20
2024-02-16T07:40:41.045Z,1.30
2024-02-16T07:41:40.991Z,1.30
2024-02-16T07:42:41.012Z,1.10
2024-02-16T07:43:40.981Z,1.30
2024-02-16T07:44:40.990Z,1.00
2024-02-16T07:45:41.114Z,1.40
2024-02-16T07:46:40.969Z,1.10
2024-02-16T07:47:40.981Z,1.20
2024-02-16T07:48:41.087Z,1.10
2024-02-16T07:49:41.319Z,1.30
2024-02-16T07:50:40.923Z,1.10
2024-02-16T07:51:40.958Z,1.20
2024-02-16T07:52:40.917Z,1.20
2024-02-16T07:53:40.845Z,1.40
2024-02-16T07:54:40.913Z,1.40
2024-02-16T07:55:40.849Z,1.40
2024-02-16T07:56:40.822Z,1.40
2024-02-16T07:57:40.893Z,1.20
2024-02-16T07:58:41.270Z,1.30
2024-02-16T07:59:40.780Z,1.30
2024-02-16T08:00:41.001Z,1.40
2024-02-16T08:01:40.805Z,1.20
2024-02-16T08:02:40.756Z,1.20
2024-02-16T08:03:40.804Z,1.10
2024-02-16T08:04:40.824Z,1.20
2024-02-16T08:05:40.739Z,1.10
2024-02-16T08:06:40.881Z,1.20
2024-02-16T08:07:40.826Z,1.20
2024-02-16T08:08:40.687Z,1.30
2024-02-16T08:09:40.708Z,1.10
2024-02-16T08:10:40.720Z,1.40
2024-02-16T08:11:40.710Z,1.30
2024-02-16T08:12:40.747Z,1.40
2024-02-16T08:13:40.642Z,1.40
2024-02-16T08:14:40.618Z,0.90
2024-02-16T08:15:40.639Z,0.90
2024-02-16T08:16:40.653Z,1.40
2024-02-16T08:17:40.751Z,1.00
2024-02-16T08:18:40.707Z,1.30
2024-02-16T08:19:40.623Z,1.10
2024-02-16T08:20:40.544Z,1.60
2024-02-16T08:21:40.589Z,1.20
2024-02-16T08:22:40.565Z,1.20
2024-02-16T08:23:40.532Z,1.20
2024-02-16T08:24:40.557Z,1.30
2024-02-16T08:25:40.514Z,1.10
2024-02-16T08:26:40.485Z,1.50
2024-02-16T08:27:40.724Z,1.40
2024-02-16T08:28:40.532Z,1.30
2024-02-16T08:29:40.457Z,1.20
2024-02-16T08:30:40.475Z,1.20
2024-02-16T08:31:40.427Z,1.20
2024-02-16T08:32:40.645Z,1.20
2024-02-16T08:33:40.648Z,1.30
2024-02-16T08:34:40.714Z,1.30
2024-02-16T08:35:40.387Z,1.30
2024-02-16T08:36:40.391Z,1.50
2024-02-16T08:37:40.433Z,1.30
2024-02-16T08:38:40.354Z,1.30
2024-02-16T08:39:40.582Z,1.60
2024-02-16T08:40:40.351Z,1.30
2024-02-16T08:41:40.313Z,1.50
2024-02-16T08:42:40.401Z,1.30
2024-02-16T08:43:40.307Z,1.60
2024-02-16T08:44:40.295Z,1.30
2024-02-16T08:45:40.410Z,1.20
2024-02-16T08:46:40.413Z,1.30
2024-02-16T08:47:40.453Z,1.50
2024-02-16T08:48:40.353Z,1.20
2024-02-16T08:49:40.441Z,1.60
2024-02-16T08:50:40.220Z,1.30
2024-02-16T08:51:40.321Z,1.30
2024-02-16T08:52:40.239Z,1.30
2024-02-16T08:53:40.200Z,1.30
2024-02-16T08:54:40.425Z,1.30
2024-02-16T08:55:40.237Z,1.30
2024-02-16T08:56:40.331Z,1.30
2024-02-16T08:57:40.252Z,1.30
2024-02-16T08:58:40.252Z,1.40
2024-02-16T08:59:40.181Z,1.50
2024-02-16T09:00:40.391Z,1.50
2024-02-16T09:01:40.214Z,1.50
2024-02-16T09:02:40.098Z,1.20
2024-02-16T09:03:40.392Z,1.30
2024-02-16T09:04:40.158Z,1.50
2024-02-16T09:05:40.093Z,1.40
2024-02-16T09:06:40.214Z,1.30
2024-02-16T09:07:40.033Z,1.40
2024-02-16T09:08:40.033Z,1.40
2024-02-16T09:09:40.173Z,1.50
2024-02-16T09:10:40.180Z,1.20
2024-02-16T09:11:40.128Z,1.40
2024-02-16T09:12:39.986Z,1.50
2024-02-16T09:13:41.723Z,1.50
2024-02-16T09:14:39.960Z,1.40
2024-02-16T09:15:40.034Z,1.10
2024-02-16T09:16:39.949Z,1.30
2024-02-16T09:17:39.961Z,1.30
2024-02-16T09:18:39.976Z,1.40
2024-02-16T09:19:39.934Z,1.40
2024-02-16T09:20:39.993Z,1.50
2024-02-16T09:21:39.897Z,1.20
2024-02-16T09:23:39.854Z,1.00
2024-02-16T09:24:39.887Z,1.40
2024-02-16T09:25:39.917Z,1.50
2024-02-16T09:26:39.919Z,1.60
2024-02-16T09:27:39.892Z,1.60
2024-02-16T09:28:39.820Z,1.40
2024-02-16T09:29:39.800Z,1.30
2024-02-16T09:30:39.866Z,1.40
2024-02-16T09:31:39.778Z,1.20
2024-02-16T09:32:39.780Z,1.20
2024-02-16T09:33:39.866Z,1.20
2024-02-16T09:34:42.580Z,1.40
2024-02-16T09:35:39.755Z,1.30
2024-02-16T09:36:39.764Z,1.20
2024-02-16T09:37:39.741Z,1.40
2024-02-16T09:38:39.683Z,1.40
2024-02-16T09:39:39.734Z,1.60
2024-02-16T09:40:39.708Z,1.30
2024-02-16T09:41:39.667Z,1.40
2024-02-16T09:42:39.751Z,1.20
2024-02-16T09:43:39.633Z,1.20
2024-02-16T09:44:39.628Z,1.70
2024-02-16T09:45:39.703Z,1.50
2024-02-16T09:46:39.660Z,1.90
2024-02-16T09:47:39.585Z,1.50
2024-02-16T09:48:39.723Z,1.60
2024-02-16T09:49:40.967Z,1.70
2024-02-16T09:50:39.707Z,1.40
2024-02-16T09:51:40.083Z,1.60
2024-02-16T09:52:39.563Z,1.60
2024-02-16T09:53:39.521Z,1.40
2024-02-16T09:54:39.525Z,1.50
2024-02-16T09:55:39.492Z,1.30
2024-02-16T09:56:39.474Z,1.10
2024-02-16T09:57:39.513Z,1.70
2024-02-16T09:58:39.501Z,1.40
2024-02-16T09:59:39.448Z,1.50
2024-02-16T10:00:39.579Z,1.30
2024-02-16T10:01:39.546Z,1.60
2024-02-16T10:02:39.419Z,1.40
2024-02-16T10:03:39.515Z,1.20
2024-02-16T10:04:39.442Z,1.60
2024-02-16T10:05:39.422Z,1.40
2024-02-16T10:06:39.408Z,1.70
2024-02-16T10:07:39.455Z,1.70
2024-02-16T10:08:39.361Z,1.50
2024-02-16T10:09:39.744Z,1.50
2024-02-16T10:10:39.902Z,1.50
2024-02-16T10:11:39.346Z,1.50
2024-02-16T10:12:39.335Z,1.40
2024-02-16T10:13:39.286Z,1.20
2024-02-16T10:14:39.288Z,1.60
2024-02-16T10:15:39.293Z,1.50
2024-02-16T10:16:39.302Z,1.60
2024-02-16T10:17:39.267Z,1.60
2024-02-16T10:18:39.393Z,1.70
2024-02-16T10:19:39.275Z,1.40
2024-02-16T10:20:39.209Z,1.60
2024-02-16T10:21:39.244Z,1.40
2024-02-16T10:22:48.140Z,1.40
2024-02-16T10:24:46.190Z,1.60
2024-02-16T10:25:39.180Z,1.50
2024-02-16T10:26:39.154Z,1.30
2024-02-16T10:27:39.259Z,1.30
2024-02-16T10:28:39.171Z,1.40
2024-02-16T10:29:39.118Z,1.50
2024-02-16T10:30:39.140Z,1.40
2024-02-16T10:31:39.119Z,1.50
2024-02-16T10:32:39.129Z,1.50
2024-02-16T10:33:39.217Z,1.40
2024-02-16T10:34:39.316Z,1.50
2024-02-16T10:35:39.054Z,1.50
2024-02-16T10:36:39.291Z,1.40
2024-02-16T10:37:39.026Z,1.40
2024-02-16T10:38:39.008Z,1.60
2024-02-16T10:39:39.031Z,1.20
2024-02-16T10:40:39.027Z,1.60
2024-02-16T10:41:39.003Z,1.90
2024-02-16T10:42:38.990Z,1.30
2024-02-16T10:43:39.255Z,1.70
2024-02-16T10:44:38.948Z,1.70
2024-02-16T10:45:38.993Z,1.70
2024-02-16T10:46:38.977Z,1.70
2024-02-16T10:47:38.924Z,1.40
2024-02-16T10:48:39.043Z,1.70
2024-02-16T10:49:39.049Z,1.30
2024-02-16T10:50:39.017Z,1.60
2024-02-16T10:51:38.902Z,1.70
2024-02-16T10:52:38.883Z,1.50
2024-02-16T10:53:38.850Z,1.60
2024-02-16T10:54:39.164Z,1.50
2024-02-16T10:55:38.838Z,1.70
2024-02-16T10:56:38.810Z,1.70
2024-02-16T10:57:38.866Z,1.40
2024-02-16T10:58:38.832Z,1.40
2024-02-16T10:59:38.776Z,1.70
2024-02-16T11:00:41.795Z,1.90
2024-02-16T11:01:39.030Z,1.50
2024-02-16T11:02:38.745Z,1.50
2024-02-16T11:03:38.897Z,1.40
2024-02-16T11:04:38.796Z,1.80
2024-02-16T11:05:38.714Z,1.70
2024-02-16T11:06:38.801Z,2.00
2024-02-16T11:07:38.792Z,1.60
2024-02-16T11:08:38.673Z,1.80
2024-02-16T11:09:38.764Z,1.60
2024-02-16T11:10:38.681Z,1.70
2024-02-16T11:11:38.646Z,2.00
2024-02-16T11:12:38.765Z,1.50
2024-02-16T11:13:38.624Z,1.40
2024-02-16T11:14:38.642Z,1.40
2024-02-16T11:15:38.739Z,1.90
2024-02-16T11:16:38.626Z,1.70
2024-02-16T11:17:38.600Z,1.60
2024-02-16T11:18:38.819Z,1.70
2024-02-16T11:19:38.725Z,1.90
2024-02-16T11:20:38.549Z,1.60
2024-02-16T11:21:38.628Z,1.60
2024-02-16T11:22:38.572Z,1.40
2024-02-16T11:23:38.516Z,1.60
2024-02-16T11:24:38.548Z,1.60
2024-02-16T11:25:38.496Z,2.00
2024-02-16T11:26:38.478Z,1.60
2024-02-16T11:27:38.509Z,1.40
2024-02-16T11:28:38.492Z,1.70
2024-02-16T11:29:38.458Z,1.60
2024-02-16T11:30:38.540Z,1.80
2024-02-16T11:31:38.420Z,1.30
2024-02-16T11:32:38.439Z,1.60
2024-02-16T11:33:38.553Z,1.80
2024-02-16T11:34:38.495Z,1.90
2024-02-16T11:35:38.385Z,1.60
2024-02-16T11:36:38.483Z,1.70
2024-02-16T11:37:38.358Z,1.50
2024-02-16T11:38:38.359Z,1.80
2024-02-16T11:39:38.806Z,1.90
2024-02-16T11:40:38.352Z,1.50
2024-02-16T11:41:38.315Z,1.70
2024-02-16T11:42:38.383Z,1.70
2024-02-16T11:43:38.352Z,1.50
2024-02-16T11:44:38.282Z,1.80
2024-02-16T11:45:38.331Z,2.00
2024-02-16T11:46:38.295Z,1.80
2024-02-16T11:47:38.294Z,2.60
2024-02-16T11:48:38.439Z,1.80
2024-02-16T11:49:38.314Z,1.90
2024-02-16T11:50:38.218Z,1.90
2024-02-16T11:51:38.320Z,1.50
2024-02-16T11:52:38.242Z,1.80
2024-02-16T11:53:38.181Z,2.00
2024-02-16T11:54:38.372Z,2.00
2024-02-16T11:55:38.171Z,1.90
2024-02-16T11:56:38.153Z,2.00
2024-02-16T11:57:38.206Z,2.30
2024-02-16T11:58:38.167Z,1.80
2024-02-16T11:59:38.120Z,2.00
2024-02-16T12:00:38.174Z,2.20
2024-02-16T12:01:38.198Z,2.20
2024-02-16T12:02:38.184Z,2.20
2024-02-16T12:03:38.121Z,2.30
2024-02-16T12:04:44.378Z,2.00
2024-02-16T12:05:38.071Z,1.90
2024-02-16T12:06:38.178Z,2.10
2024-02-16T12:07:38.126Z,2.10
2024-02-16T12:08:38.014Z,1.90
2024-02-16T12:09:38.029Z,2.10
2024-02-16T12:10:38.042Z,2.40
2024-02-16T12:11:38.138Z,2.20
2024-02-16T12:12:38.135Z,1.90
2024-02-16T12:13:37.950Z,2.20
2024-02-16T12:14:37.960Z,1.90
2024-02-16T12:15:37.974Z,2.30
2024-02-16T12:16:37.976Z,2.20
2024-02-16T12:17:37.953Z,2.50
2024-02-16T12:18:38.041Z,2.20
2024-02-16T12:19:38.038Z,2.30
2024-02-16T12:20:37.977Z,2.50
2024-02-16T12:21:37.899Z,2.40
2024-02-16T12:22:37.882Z,2.60
2024-02-16T12:23:37.851Z,2.40
2024-02-16T12:24:37.865Z,2.50
2024-02-16T12:25:37.847Z,2.50
2024-02-16T12:26:37.815Z,2.50
2024-02-16T12:27:37.861Z,2.60
2024-02-16T12:28:37.860Z,2.20
2024-02-16T12:29:37.783Z,2.10
2024-02-16T12:30:38.464Z,2.00
2024-02-16T12:31:38.255Z,2.30
2024-02-16T12:32:38.853Z,2.30
2024-02-16T12:33:37.829Z,2.90
2024-02-16T12:34:37.979Z,2.80
2024-02-16T12:35:37.742Z,2.80
2024-02-16T12:36:37.752Z,2.60
2024-02-16T12:37:37.718Z,2.50
2024-02-16T12:38:37.703Z,2.60
2024-02-16T12:39:37.806Z,2.60
2024-02-16T12:40:37.721Z,2.60
2024-02-16T12:41:37.665Z,3.10
2024-02-16T12:42:37.707Z,2.90
2024-02-16T12:43:37.645Z,2.80
2024-02-16T12:44:37.651Z,2.90
2024-02-16T12:45:37.677Z,3.30
2024-02-16T12:46:38.550Z,2.80
2024-02-16T12:47:37.657Z,2.70
2024-02-16T12:48:37.718Z,2.60
2024-02-16T12:49:37.695Z,2.50
2024-02-16T12:50:38.263Z,2.50
2024-02-16T12:51:37.589Z,2.70
2024-02-16T12:52:46.653Z,2.40
2024-02-16T12:53:37.557Z,3.00
2024-02-16T12:54:37.561Z,2.60
2024-02-16T12:55:37.572Z,2.10
2024-02-16T12:56:37.515Z,2.90
2024-02-16T12:57:37.553Z,2.70
2024-02-16T12:58:37.530Z,2.50
2024-02-16T12:59:37.483Z,2.50
2024-02-16T13:00:37.654Z,3.20
2024-02-16T13:01:37.632Z,1.90
2024-02-16T13:02:37.453Z,2.50
2024-02-16T13:03:37.596Z,2.80
2024-02-16T13:04:37.526Z,2.80
2024-02-16T13:05:37.555Z,2.30
2024-02-16T13:06:37.649Z,2.90
2024-02-16T13:07:37.465Z,2.50
2024-02-16T13:08:37.376Z,2.90
2024-02-16T13:09:37.395Z,2.50
2024-02-16T13:10:37.406Z,2.40
2024-02-16T13:11:37.364Z,2.50
2024-02-16T13:12:37.367Z,2.70
2024-02-16T13:13:37.314Z,2.50
2024-02-16T13:14:37.309Z,2.40
2024-02-16T13:15:37.348Z,2.90
2024-02-16T13:16:37.623Z,2.30
2024-02-16T13:17:37.502Z,2.40
2024-02-16T13:18:37.366Z,2.20
2024-02-16T13:19:37.406Z,2.90
2024-02-16T13:20:37.280Z,2.50